createdAt,value
2018-09-18T00:02:21.644Z,10.67
2018-09-18T00:04:51.067Z,11.33
2018-09-18T00:07:20.445Z,12.00
2018-09-18T00:09:53.047Z,10.67
2018-09-18T00:12:22.406Z,12.00
2018-09-18T00:14:51.825Z,13.00
2018-09-18T00:17:21.563Z,12.00
2018-09-18T00:19:50.890Z,12.67
2018-09-18T00:22:20.326Z,11.67
2018-09-18T00:24:49.767Z,12.67
2018-09-18T00:27:19.271Z,14.00
2018-09-18T00:29:48.620Z,12.00
2018-09-18T00:32:18.017Z,11.00
2018-09-18T00:34:47.412Z,12.00
2018-09-18T00:37:16.858Z,12.00
2018-09-18T00:39:46.201Z,12.33
2018-09-18T00:42:15.533Z,11.67
2018-09-18T00:44:44.911Z,11.00
2018-09-18T00:47:14.881Z,11.33
2018-09-18T00:49:44.302Z,12.33
2018-09-18T00:52:16.074Z,10.67
2018-09-18T00:54:46.080Z,10.00
2018-09-18T00:57:15.518Z,12.00
2018-09-18T00:59:44.886Z,11.33
2018-09-18T01:02:14.513Z,11.00
2018-09-18T01:04:43.825Z,12.00
2018-09-18T01:07:13.185Z,10.67
2018-09-18T01:09:46.234Z,11.33
2018-09-18T01:12:15.568Z,12.67
2018-09-18T01:14:45.800Z,9.00
2018-09-18T01:17:17.413Z,13.00
2018-09-18T01:19:46.754Z,10.67
2018-09-18T01:22:16.105Z,11.00
2018-09-18T01:24:46.003Z,12.00
2018-09-18T01:27:15.406Z,12.00
2018-09-18T01:29:44.799Z,13.00
2018-09-18T01:32:15.723Z,10.67
2018-09-18T01:34:45.563Z,11.00
2018-09-18T01:37:14.982Z,12.33
2018-09-18T01:39:47.617Z,12.00
2018-09-18T01:42:16.980Z,10.67
2018-09-18T01:44:46.435Z,12.00
2018-09-18T01:47:16.280Z,12.00
2018-09-18T01:49:46.497Z,12.67
2018-09-18T01:52:15.945Z,10.67
2018-09-18T01:54:46.526Z,11.00
2018-09-18T01:57:16.024Z,11.33
2018-09-18T01:59:45.751Z,12.00
2018-09-18T02:02:16.709Z,11.67
2018-09-18T02:04:46.146Z,12.00
2018-09-18T02:07:16.227Z,13.00
2018-09-18T02:09:45.629Z,12.00
2018-09-18T02:12:15.039Z,12.00
2018-09-18T02:14:46.271Z,12.00
2018-09-18T02:17:16.327Z,12.00
2018-09-18T02:19:45.710Z,8.67
2018-09-18T02:22:15.057Z,12.00
2018-09-18T02:24:44.443Z,12.00
2018-09-18T02:27:13.850Z,12.00
2018-09-18T02:29:43.573Z,11.67
2018-09-18T02:32:12.954Z,12.00
2018-09-18T02:34:42.354Z,12.00
2018-09-18T02:37:11.749Z,12.00
2018-09-18T02:39:41.743Z,12.67
2018-09-18T02:42:11.711Z,13.00
2018-09-18T02:44:41.398Z,12.33
2018-09-18T02:47:10.791Z,11.67
2018-09-18T02:49:40.224Z,11.00
2018-09-18T02:52:09.639Z,12.67
2018-09-18T02:54:39.026Z,13.00
2018-09-18T02:57:08.403Z,14.00
2018-09-18T02:59:37.823Z,13.00
2018-09-18T03:02:07.242Z,12.33
2018-09-18T03:04:36.674Z,12.67
2018-09-18T03:07:12.564Z,11.00
2018-09-18T03:09:43.764Z,12.00
2018-09-18T03:12:13.253Z,13.00
2018-09-18T03:14:42.632Z,12.00
2018-09-18T03:17:12.352Z,13.00
2018-09-18T03:19:41.737Z,11.33
2018-09-18T03:22:11.259Z,12.33
2018-09-18T03:24:40.962Z,12.00
2018-09-18T03:27:11.005Z,13.00
2018-09-18T03:29:40.363Z,13.67
2018-09-18T03:32:10.289Z,11.67
2018-09-18T03:34:39.703Z,11.00
2018-09-18T03:37:09.174Z,11.33
2018-09-18T03:39:38.940Z,10.67
2018-09-18T03:42:08.398Z,12.00
2018-09-18T03:44:37.815Z,11.33
2018-09-18T03:47:07.532Z,11.00
2018-09-18T03:49:36.915Z,9.67
2018-09-18T03:52:06.354Z,12.00
2018-09-18T03:54:35.662Z,12.00
2018-09-18T03:57:05.070Z,9.67
2018-09-18T03:59:35.005Z,10.00
2018-09-18T04:02:04.395Z,10.33
2018-09-18T04:04:33.779Z,12.00
2018-09-18T04:07:03.163Z,11.67
2018-09-18T04:09:32.597Z,10.33
2018-09-18T04:12:02.637Z,11.33
2018-09-18T04:14:32.164Z,11.67
2018-09-18T04:17:01.594Z,11.67
2018-09-18T04:21:55.274Z,13.25
2018-09-18T04:24:25.382Z,10.00
2018-09-18T04:26:54.935Z,12.67
2018-09-18T04:29:24.629Z,11.00
2018-09-18T04:31:54.136Z,10.33
2018-09-18T04:34:23.750Z,12.00
2018-09-18T04:36:53.624Z,13.67
2018-09-18T04:39:23.032Z,13.67
2018-09-18T04:41:52.389Z,10.67
2018-09-18T04:44:22.044Z,11.33
2018-09-18T04:46:51.954Z,13.00
2018-09-18T04:49:21.348Z,11.00
2018-09-18T04:54:22.253Z,13.43
2018-09-18T04:56:53.553Z,12.00
2018-09-18T04:59:23.376Z,11.67
2018-09-18T05:01:53.206Z,12.33
2018-09-18T05:04:23.008Z,11.00
2018-09-18T05:06:52.653Z,11.67
2018-09-18T05:09:22.163Z,13.00
2018-09-18T05:11:52.377Z,13.67
2018-09-18T05:14:22.154Z,11.67
2018-09-18T05:16:52.181Z,12.00
2018-09-18T05:19:22.341Z,13.00
2018-09-18T05:21:53.060Z,14.00
2018-09-18T05:24:22.528Z,11.67
2018-09-18T05:26:52.551Z,11.33
2018-09-18T05:29:23.585Z,15.67
2018-09-18T05:31:52.957Z,12.00
2018-09-18T05:34:23.322Z,11.67
2018-09-18T05:36:55.117Z,16.67
2018-09-18T05:39:24.485Z,13.00
2018-09-18T05:41:55.027Z,15.33
2018-09-18T05:44:25.065Z,14.67
2018-09-18T05:46:55.845Z,12.00
2018-09-18T05:49:27.250Z,13.00
2018-09-18T05:51:57.754Z,13.67
2018-09-18T05:54:27.237Z,14.00
2018-09-18T05:56:56.783Z,11.67
2018-09-18T05:59:26.439Z,11.67
2018-09-18T06:01:56.747Z,11.67
2018-09-18T06:04:26.182Z,12.67
2018-09-18T06:06:55.878Z,14.67
2018-09-18T06:09:25.265Z,14.33
2018-09-18T06:11:56.470Z,15.33
2018-09-18T06:14:25.949Z,16.67
2018-09-18T06:16:55.435Z,14.67
2018-09-18T06:19:25.299Z,15.00
2018-09-18T06:21:54.724Z,15.67
2018-09-18T06:24:24.602Z,11.00
2018-09-18T06:26:54.064Z,15.33
2018-09-18T06:29:23.520Z,13.33
2018-09-18T06:31:53.538Z,14.33
2018-09-18T06:34:23.255Z,14.67
2018-09-18T06:36:52.959Z,14.00
2018-09-18T06:39:26.213Z,14.33
2018-09-18T06:41:55.661Z,14.67
2018-09-18T06:44:26.997Z,15.67
2018-09-18T06:46:57.197Z,13.67
2018-09-18T06:49:30.848Z,14.67
2018-09-18T06:52:00.689Z,19.00
2018-09-18T06:54:30.176Z,16.00
2018-09-18T06:57:00.581Z,17.00
2018-09-18T06:59:30.056Z,17.33
2018-09-18T07:02:01.454Z,16.33
2018-09-18T07:04:31.353Z,17.33
2018-09-18T07:07:02.397Z,17.00
2018-09-18T07:09:34.905Z,18.33
2018-09-18T07:12:04.408Z,18.33
2018-09-18T07:14:34.496Z,17.33
2018-09-18T07:17:08.397Z,16.33
2018-09-18T07:19:38.034Z,16.00
2018-09-18T07:22:07.525Z,16.00
2018-09-18T07:24:39.459Z,15.33
2018-09-18T07:27:10.446Z,15.00
2018-09-18T07:29:40.780Z,17.00
2018-09-18T07:32:10.774Z,13.67
2018-09-18T07:34:40.192Z,15.67
2018-09-18T07:37:13.006Z,15.67
2018-09-18T07:39:43.731Z,16.33
2018-09-18T07:42:14.010Z,14.00
2018-09-18T07:44:45.836Z,12.00
2018-09-18T07:47:16.449Z,12.67
2018-09-18T07:49:46.497Z,15.00
2018-09-18T07:52:20.662Z,12.33
2018-09-18T07:54:51.674Z,15.00
2018-09-18T07:57:21.139Z,17.33
2018-09-18T07:59:52.104Z,16.33
2018-09-18T08:02:26.305Z,17.67
2018-09-18T08:04:56.465Z,17.00
2018-09-18T08:07:27.858Z,18.67
2018-09-18T08:09:59.650Z,17.00
2018-09-18T08:12:30.349Z,16.00
2018-09-18T08:15:04.430Z,17.33
2018-09-18T08:17:34.897Z,17.67
2018-09-18T08:20:04.958Z,16.00
2018-09-18T08:22:35.014Z,16.67
2018-09-18T08:25:04.542Z,16.00
2018-09-18T08:27:37.436Z,16.00
2018-09-18T08:30:16.252Z,16.33
2018-09-18T08:32:46.225Z,17.00
2018-09-18T08:35:16.120Z,16.33
2018-09-18T08:37:45.602Z,16.67
2018-09-18T08:40:16.102Z,16.67
2018-09-18T08:42:48.600Z,15.33
2018-09-18T08:45:26.770Z,16.67
2018-09-18T08:48:06.171Z,18.00
2018-09-18T08:50:37.078Z,16.67
2018-09-18T08:53:06.594Z,16.00
2018-09-18T08:55:36.563Z,16.67
2018-09-18T08:58:06.882Z,15.67
2018-09-18T09:00:36.405Z,18.00
2018-09-18T09:03:06.964Z,18.33
2018-09-18T09:05:36.629Z,15.00
2018-09-18T09:08:08.192Z,17.00
2018-09-18T09:10:38.208Z,15.67
2018-09-18T09:13:08.538Z,15.00
2018-09-18T09:15:40.878Z,15.33
2018-09-18T09:18:11.490Z,14.00
2018-09-18T09:26:42.906Z,15.00
2018-09-18T09:29:17.196Z,15.33
2018-09-18T09:31:49.519Z,16.00
2018-09-18T09:34:18.948Z,15.00
2018-09-18T09:36:51.118Z,15.00
2018-09-18T09:39:21.450Z,15.00
2018-09-18T09:47:57.613Z,14.67
2018-09-18T09:50:27.269Z,15.00
2018-09-18T09:52:59.487Z,16.00
2018-09-18T09:55:29.312Z,14.67
2018-09-18T09:57:59.526Z,15.67
2018-09-18T10:00:34.425Z,12.67
2018-09-18T10:03:05.286Z,15.33
2018-09-18T10:05:36.104Z,15.00
2018-09-18T10:08:05.664Z,13.67
2018-09-18T10:10:35.691Z,14.33
2018-09-18T10:13:06.020Z,14.67
2018-09-18T10:15:36.444Z,12.67
2018-09-18T10:18:10.779Z,14.33
2018-09-18T10:20:42.394Z,13.00
2018-09-18T10:23:12.830Z,13.33
2018-09-18T10:25:43.070Z,13.00
2018-09-18T10:28:13.771Z,12.00
2018-09-18T10:30:43.299Z,13.00
2018-09-18T10:33:12.743Z,12.67
2018-09-18T10:35:42.450Z,12.67
2018-09-18T10:38:12.201Z,14.00
2018-09-18T10:40:43.783Z,13.00
2018-09-18T10:43:15.243Z,14.00
2018-09-18T10:45:45.409Z,12.67
2018-09-18T10:48:15.180Z,11.33
2018-09-18T10:50:44.919Z,13.67
2018-09-18T10:53:15.257Z,14.33
2018-09-18T10:55:46.221Z,13.33
2018-09-18T10:58:17.094Z,14.00
2018-09-18T11:00:48.822Z,12.00
2018-09-18T11:03:18.497Z,15.00
2018-09-18T11:05:50.058Z,14.67
2018-09-18T11:08:20.257Z,13.33
2018-09-18T11:10:50.908Z,14.67
2018-09-18T11:13:20.400Z,14.67
2018-09-18T11:15:50.155Z,13.33
2018-09-18T11:18:20.166Z,14.33
2018-09-18T11:20:49.731Z,15.33
2018-09-18T11:23:19.631Z,14.33
2018-09-18T11:25:53.178Z,15.00
2018-09-18T11:28:22.765Z,15.00
2018-09-18T11:30:52.636Z,15.00
2018-09-18T11:33:22.398Z,15.33
2018-09-18T11:35:53.323Z,15.00
2018-09-18T11:38:22.750Z,14.33
2018-09-18T11:40:53.328Z,13.67
2018-09-18T11:43:22.811Z,13.67
2018-09-18T11:45:56.171Z,14.33
2018-09-18T11:48:25.841Z,13.00
2018-09-18T11:50:56.757Z,13.67
2018-09-18T11:53:28.106Z,12.67
2018-09-18T11:56:01.273Z,15.33
2018-09-18T11:58:32.134Z,12.67
2018-09-18T12:01:02.064Z,14.67
2018-09-18T12:03:32.931Z,13.00
2018-09-18T12:06:03.230Z,13.67
2018-09-18T12:08:33.522Z,14.67
2018-09-18T12:11:04.061Z,14.00
2018-09-18T12:13:33.539Z,15.67
2018-09-18T12:16:03.048Z,15.67
2018-09-18T12:18:38.371Z,14.33
2018-09-18T12:21:12.048Z,15.00
2018-09-18T12:23:42.185Z,15.00
2018-09-18T12:26:11.707Z,14.67
2018-09-18T12:28:41.915Z,11.67
2018-09-18T12:31:12.948Z,14.67
2018-09-18T12:33:43.366Z,13.67
2018-09-18T12:36:13.993Z,13.33
2018-09-18T12:38:43.496Z,12.67
2018-09-18T12:41:15.002Z,14.33
2018-09-18T12:43:47.500Z,12.67
2018-09-18T12:46:17.579Z,11.67
2018-09-18T12:48:47.706Z,12.00
2018-09-18T12:51:18.473Z,11.00
2018-09-18T12:53:49.095Z,12.00
2018-09-18T12:56:19.436Z,13.00
2018-09-18T12:58:50.517Z,11.67
2018-09-18T13:01:21.036Z,12.67
2018-09-18T13:03:50.982Z,12.33
2018-09-18T13:06:20.656Z,12.33
2018-09-18T13:08:51.296Z,10.00
2018-09-18T13:11:23.530Z,10.33
2018-09-18T13:13:54.108Z,13.00
2018-09-18T13:16:25.810Z,13.00
2018-09-18T13:18:56.149Z,11.67
2018-09-18T13:21:25.525Z,12.67
2018-09-18T13:23:56.381Z,11.00
2018-09-18T13:26:25.919Z,13.00
2018-09-18T13:28:55.386Z,11.00
2018-09-18T13:31:26.695Z,13.00
2018-09-18T13:33:56.312Z,13.33
2018-09-18T13:36:28.616Z,12.00
2018-09-18T13:39:01.526Z,14.00
2018-09-18T13:41:30.964Z,12.00
2018-09-18T13:44:00.462Z,12.67
2018-09-18T13:46:29.998Z,13.00
2018-09-18T13:49:01.480Z,11.00
2018-09-18T13:51:32.489Z,11.00
2018-09-18T13:54:16.563Z,11.33
2018-09-18T13:59:33.037Z,11.00
2018-09-18T14:02:04.338Z,11.00
2018-09-18T14:04:35.507Z,10.67
2018-09-18T14:07:05.138Z,11.67
2018-09-18T14:09:35.868Z,11.33
2018-09-18T14:12:05.420Z,11.00
2018-09-18T14:14:34.924Z,10.00
2018-09-18T14:17:04.802Z,11.00
2018-09-18T14:19:35.390Z,11.67
2018-09-18T14:22:06.540Z,11.00
2018-09-18T14:24:39.324Z,12.00
2018-09-18T14:27:08.854Z,12.67
2018-09-18T14:29:40.708Z,10.00
2018-09-18T14:32:10.794Z,11.33
2018-09-18T14:34:43.409Z,9.33
2018-09-18T14:37:16.451Z,9.67
2018-09-18T14:39:47.918Z,9.67
2018-09-18T14:42:21.298Z,8.33
2018-09-18T14:44:54.061Z,9.67
2018-09-18T14:47:25.539Z,8.00
2018-09-18T14:49:55.994Z,10.00
2018-09-18T14:52:28.720Z,10.00
2018-09-18T14:54:59.397Z,10.00
2018-09-18T14:57:30.408Z,10.00
2018-09-18T15:00:02.295Z,9.00
2018-09-18T15:02:33.135Z,9.33
2018-09-18T15:05:04.506Z,10.00
2018-09-18T15:07:33.867Z,9.33
2018-09-18T15:10:04.217Z,10.00
2018-09-18T15:12:36.981Z,9.00
2018-09-18T15:15:09.241Z,10.00
2018-09-18T15:17:40.631Z,10.00
2018-09-18T15:20:10.986Z,9.00
2018-09-18T15:22:44.749Z,9.00
2018-09-18T15:25:15.866Z,7.67
2018-09-18T15:27:45.381Z,10.00
2018-09-18T15:30:18.467Z,9.00
2018-09-18T15:32:49.878Z,10.00
2018-09-18T15:35:21.519Z,10.33
2018-09-18T15:37:54.848Z,11.00
2018-09-18T15:40:31.357Z,11.67
2018-09-18T15:43:08.856Z,10.00
2018-09-18T15:45:43.607Z,10.33
2018-09-18T15:48:19.000Z,10.00
2018-09-18T15:51:27.387Z,9.67
2018-09-18T15:54:01.521Z,10.00
2018-09-18T15:56:37.874Z,10.00
2018-09-18T15:59:13.319Z,10.33
2018-09-18T16:01:45.650Z,9.00
2018-09-18T16:04:25.611Z,8.00
2018-09-18T16:06:59.128Z,11.33
2018-09-18T16:09:35.674Z,10.00
2018-09-18T16:12:12.688Z,10.00
2018-09-18T16:14:47.038Z,10.00
2018-09-18T16:17:21.657Z,10.00
2018-09-18T16:19:53.609Z,10.00
2018-09-18T16:22:29.210Z,9.33
2018-09-18T16:25:09.913Z,11.00
2018-09-18T16:27:56.560Z,9.00
2018-09-18T16:30:44.366Z,10.00
2018-09-18T16:33:20.830Z,9.33
2018-09-18T16:35:57.117Z,11.00
2018-09-18T16:39:05.149Z,9.33
2018-09-18T16:41:37.560Z,11.00
2018-09-18T16:44:07.004Z,10.00
2018-09-18T16:46:37.382Z,10.00
2018-09-18T16:49:07.629Z,11.00
2018-09-18T16:51:40.804Z,11.00
2018-09-18T16:54:13.325Z,10.67
2018-09-18T16:56:42.916Z,10.67
2018-09-18T16:59:13.245Z,10.00
2018-09-18T17:01:45.874Z,10.33
2018-09-18T17:04:23.379Z,10.67
2018-09-18T17:06:53.256Z,10.67
2018-09-18T17:09:25.318Z,11.00
2018-09-18T17:11:57.087Z,12.33
2018-09-18T17:14:28.587Z,10.33
2018-09-18T17:17:02.679Z,10.00
2018-09-18T17:19:36.181Z,11.00
2018-09-18T17:22:06.463Z,10.33
2018-09-18T17:24:40.304Z,10.67
2018-09-18T17:27:12.023Z,11.67
2018-09-18T17:29:41.635Z,9.67
2018-09-18T17:32:12.896Z,10.00
2018-09-18T17:34:45.193Z,10.00
2018-09-18T17:37:17.871Z,10.00
2018-09-18T17:39:51.204Z,9.17
2018-09-18T17:42:23.907Z,10.00
2018-09-18T17:44:53.387Z,11.67
2018-09-18T17:47:27.778Z,10.00
2018-09-18T17:50:00.750Z,10.67
2018-09-18T17:52:35.736Z,10.67
2018-09-18T17:55:07.645Z,10.67
2018-09-18T17:57:39.294Z,9.67
2018-09-18T18:00:12.525Z,12.33
2018-09-18T18:02:41.943Z,11.00
2018-09-18T18:05:13.858Z,10.00
2018-09-18T18:07:44.687Z,8.67
2018-09-18T18:10:17.490Z,9.67
2018-09-18T18:12:48.148Z,11.00
2018-09-18T18:15:19.564Z,9.00
2018-09-18T18:17:49.014Z,11.00
2018-09-18T18:20:18.457Z,11.33
2018-09-18T18:22:50.226Z,11.00
2018-09-18T18:25:19.831Z,10.33
2018-09-18T18:27:50.332Z,10.67
2018-09-18T18:32:56.662Z,10.00
2018-09-18T18:35:26.467Z,10.33
2018-09-18T18:37:57.181Z,10.67
2018-09-18T18:40:27.536Z,11.33
2018-09-18T18:42:57.729Z,10.67
2018-09-18T18:45:28.550Z,11.00
2018-09-18T18:47:59.293Z,10.00
2018-09-18T18:50:29.783Z,10.33
2018-09-18T18:53:01.232Z,10.33
2018-09-18T18:55:33.559Z,10.67
2018-09-18T18:58:04.552Z,11.00
2018-09-18T19:00:35.659Z,11.00
2018-09-18T19:03:05.366Z,10.00
2018-09-18T19:05:34.808Z,12.00
2018-09-18T19:08:05.493Z,10.00
2018-09-18T19:10:34.865Z,11.00
2018-09-18T19:13:04.791Z,9.33
2018-09-18T19:15:35.998Z,12.00
2018-09-18T19:18:11.571Z,12.00
2018-09-18T19:20:42.530Z,11.00
2018-09-18T19:23:14.510Z,11.67
2018-09-18T19:25:46.071Z,11.00
2018-09-18T19:28:18.474Z,11.00
2018-09-18T19:30:49.654Z,10.67
2018-09-18T19:33:21.072Z,11.33
2018-09-18T19:35:53.687Z,10.00
2018-09-18T19:38:28.542Z,10.33
2018-09-18T19:41:02.011Z,11.00
2018-09-18T19:43:31.994Z,11.00
2018-09-18T19:46:02.537Z,11.00
2018-09-18T19:48:33.177Z,11.00
2018-09-18T19:51:04.355Z,11.33
2018-09-18T19:53:34.636Z,10.67
2018-09-18T19:56:07.284Z,10.00
2018-09-18T19:58:39.831Z,11.33
2018-09-18T20:01:10.594Z,10.00
2018-09-18T20:03:41.542Z,9.33
2018-09-18T20:06:14.991Z,11.33
2018-09-18T20:08:45.092Z,10.00
2018-09-18T20:11:16.257Z,10.00
2018-09-18T20:13:47.103Z,10.67
2018-09-18T20:16:18.452Z,10.67
2018-09-18T20:18:53.307Z,11.00
2018-09-18T20:21:25.988Z,11.33
2018-09-18T20:23:56.798Z,9.00
2018-09-18T20:26:27.696Z,11.33
2018-09-18T20:28:59.424Z,11.00
2018-09-18T20:31:31.698Z,12.00
2018-09-18T20:34:08.963Z,8.00
2018-09-18T20:36:39.400Z,10.00
2018-09-18T20:39:11.977Z,11.33
2018-09-18T20:41:41.686Z,12.00
2018-09-18T20:44:12.381Z,11.67
2018-09-18T20:46:41.808Z,10.00
2018-09-18T20:49:11.536Z,10.00
2018-09-18T20:51:42.190Z,10.33
2018-09-18T20:54:11.629Z,10.00
2018-09-18T20:56:41.116Z,10.33
2018-09-18T20:59:13.579Z,11.33
2018-09-18T21:01:43.143Z,9.00
2018-09-18T21:04:13.455Z,11.67
2018-09-18T21:06:44.302Z,9.33
2018-09-18T21:09:16.609Z,11.00
2018-09-18T21:11:46.037Z,12.33
2018-09-18T21:14:15.556Z,12.67
2018-09-18T21:16:45.692Z,12.00
2018-09-18T21:19:19.709Z,11.00
2018-09-18T21:21:52.497Z,11.67
2018-09-18T21:24:25.429Z,13.00
2018-09-18T21:26:54.833Z,11.00
2018-09-18T21:29:28.105Z,10.67
2018-09-18T21:31:58.730Z,11.33
2018-09-18T21:34:29.904Z,11.00
2018-09-18T21:37:02.262Z,12.67
2018-09-18T21:39:37.630Z,11.00
2018-09-18T21:42:09.074Z,10.00
2018-09-18T21:44:40.593Z,11.67
2018-09-18T21:47:10.146Z,11.67
2018-09-18T21:49:41.048Z,12.33
2018-09-18T21:52:11.134Z,11.67
2018-09-18T21:54:40.655Z,14.00
2018-09-18T21:57:10.765Z,11.67
2018-09-18T21:59:40.502Z,12.00
2018-09-18T22:02:09.951Z,12.00
2018-09-18T22:04:39.409Z,13.67
2018-09-18T22:07:09.388Z,10.67
2018-09-18T22:09:39.132Z,11.33
2018-09-18T22:12:09.630Z,9.67
2018-09-18T22:14:40.823Z,11.67
2018-09-18T22:17:10.318Z,11.33
2018-09-18T22:19:42.023Z,13.67
2018-09-18T22:22:13.343Z,12.67
2018-09-18T22:24:44.718Z,12.00
2018-09-18T22:27:14.397Z,13.33
2018-09-18T22:29:43.923Z,14.33
2018-09-18T22:32:13.577Z,14.33
2018-09-18T22:34:43.023Z,12.67
2018-09-18T22:37:13.152Z,13.00
2018-09-18T22:39:42.623Z,14.00
2018-09-18T22:42:12.092Z,13.33
2018-09-18T22:44:42.093Z,15.67
2018-09-18T22:47:11.621Z,14.67
2018-09-18T22:49:42.164Z,14.67
2018-09-18T22:52:11.797Z,15.67
2018-09-18T22:54:41.221Z,14.00
2018-09-18T22:57:11.822Z,15.33
2018-09-18T22:59:42.057Z,14.67
2018-09-18T23:02:12.126Z,15.00
2018-09-18T23:04:42.923Z,16.67
2018-09-18T23:07:12.322Z,15.33
2018-09-18T23:09:42.480Z,15.67
2018-09-18T23:12:13.052Z,15.67
2018-09-18T23:14:43.691Z,16.00
2018-09-18T23:17:13.691Z,15.00
2018-09-18T23:19:44.598Z,14.00
2018-09-18T23:22:14.125Z,16.33
2018-09-18T23:24:43.569Z,16.00
2018-09-18T23:27:12.960Z,16.33
2018-09-18T23:29:43.970Z,17.00
2018-09-18T23:32:13.426Z,17.00
2018-09-18T23:34:42.807Z,14.00
2018-09-18T23:37:12.597Z,14.67
2018-09-18T23:39:44.016Z,15.00
2018-09-18T23:42:13.524Z,15.00
2018-09-18T23:44:44.777Z,15.33
2018-09-18T23:47:15.064Z,14.67
2018-09-18T23:49:44.955Z,17.67
2018-09-18T23:52:14.429Z,16.33
2018-09-18T23:54:45.045Z,16.33
2018-09-18T23:57:16.809Z,16.00
2018-09-18T23:59:46.232Z,15.00
